Time;durP1;ratioP1;P1;durP2;ratioP2;P2;SDS_P1;SDS_P2;PMS_P1;PMS_P2;Temp;Humidity;BMP_temperature;BMP_pressure;BME280_temperature;BME280_humidity;BME280_pressure;Samples;Min_cycle;Max_cycle;Signal;HPM_P1;HPM_P2
2021/12/12 00:00:02;;;;;;;33.53;16.80;;;-8.70;95.00;;;;;;5055766;28;20029;-78
2021/12/12 00:02:45;;;;;;;28.58;15.77;;;-8.60;95.10;;;;;;5054283;28;20354;-77
2021/12/12 00:05:15;;;;;;;31.77;16.88;;;-8.60;95.10;;;;;;5055263;28;20084;-80
2021/12/12 00:07:41;;;;;;;38.75;17.27;;;-8.60;95.10;;;;;;5046729;28;20416;-80
2021/12/12 00:10:19;;;;;;;32.95;17.60;;;-8.60;95.10;;;;;;5035415;28;20037;-80
2021/12/12 00:12:49;;;;;;;33.58;15.52;;;-8.60;95.00;;;;;;5042998;28;20493;-81
2021/12/12 00:15:19;;;;;;;39.72;16.27;;;-8.50;95.00;;;;;;5056379;28;20033;-80
2021/12/12 00:17:46;;;;;;;33.20;16.15;;;-8.50;95.10;;;;;;5045394;28;20425;-80
2021/12/12 00:20:20;;;;;;;31.80;15.57;;;-8.50;95.10;;;;;;5051990;28;20029;-80
2021/12/12 00:22:47;;;;;;;32.05;16.73;;;-8.40;95.10;;;;;;5054845;28;20033;-81
2021/12/12 00:25:13;;;;;;;;;;;-8.40;95.10;;;;;;5055372;28;20512;-80
2021/12/12 00:27:39;;;;;;;26.05;15.32;;;-8.40;95.10;;;;;;5037000;28;19911;-82
2021/12/12 00:30:08;;;;;;;38.80;17.23;;;-8.40;95.10;;;;;;5055433;28;20029;-81
2021/12/12 00:32:36;;;;;;;35.88;15.32;;;-8.40;95.10;;;;;;5055021;28;20025;-81
2021/12/12 00:35:06;;;;;;;33.25;17.67;;;-8.40;95.20;;;;;;5045702;28;20056;-81
2021/12/12 00:37:33;;;;;;;25.80;13.10;;;-8.40;95.20;;;;;;5053190;28;20036;-80
2021/12/12 00:40:29;;;;;;;34.47;16.42;;;-8.40;95.20;;;;;;5055280;28;20021;-82
2021/12/12 00:43:01;;;;;;;22.98;11.43;;;-8.30;95.20;;;;;;5041061;28;20084;-82
2021/12/12 00:45:29;;;;;;;28.77;15.10;;;-8.30;95.20;;;;;;5054295;28;20036;-81
2021/12/12 00:47:55;;;;;;;26.33;13.65;;;-8.20;95.30;;;;;;5051682;28;20020;-80
2021/12/12 00:50:27;;;;;;;40.05;16.58;;;-8.20;95.30;;;;;;5054697;28;20029;-80
2021/12/12 00:52:54;;;;;;;29.63;15.95;;;-8.20;95.20;;;;;;5054743;28;20040;-79
2021/12/12 00:55:20;;;;;;;32.03;16.15;;;-8.20;95.20;;;;;;5054666;28;20017;-79
2021/12/12 00:57:50;;;;;;;29.02;14.80;;;-8.20;95.20;;;;;;5055912;28;20024;-79
2021/12/12 01:00:20;;;;;;;35.90;15.27;;;-8.10;95.20;;;;;;5054543;28;20032;-80
2021/12/12 01:02:45;;;;;;;30.73;14.52;;;-8.10;95.10;;;;;;5040116;28;20033;-78
2021/12/12 01:05:13;;;;;;;37.88;17.55;;;-8.10;95.10;;;;;;5053180;28;20078;-78
2021/12/12 01:07:42;;;;;;;31.67;16.55;;;-8.00;95.10;;;;;;5054387;28;20027;-78
2021/12/12 01:10:31;;;;;;;34.03;15.38;;;-8.10;94.90;;;;;;5057142;28;20471;-78
2021/12/12 01:13:00;;;;;;;40.63;18.40;;;-8.00;94.90;;;;;;5054196;28;20103;-79
2021/12/12 01:15:48;;;;;;;39.10;15.80;;;-8.10;94.80;;;;;;5053905;28;20049;-79
2021/12/12 01:18:22;;;;;;;31.20;14.43;;;-8.00;94.90;;;;;;5054332;28;20067;-79
2021/12/12 01:20:55;;;;;;;33.67;15.20;;;-8.00;94.90;;;;;;5054494;28;20071;-80
2021/12/12 01:23:25;;;;;;;30.08;16.23;;;-8.00;94.90;;;;;;5054660;28;20040;-80
2021/12/12 01:25:52;;;;;;;35.47;17.15;;;-8.00;94.80;;;;;;5053989;28;20021;-80
2021/12/12 01:28:25;;;;;;;28.33;17.20;;;-8.00;94.70;;;;;;5055702;28;20063;-80
2021/12/12 01:30:54;;;;;;;34.47;17.50;;;-8.10;94.50;;;;;;5054059;28;20039;-80
2021/12/12 01:33:34;;;;;;;35.92;16.98;;;-8.10;94.60;;;;;;5053790;28;20053;-80
2021/12/12 01:36:26;;;;;;;35.58;16.77;;;-8.10;94.70;;;;;;5054702;28;20028;-80
2021/12/12 01:38:55;;;;;;;38.10;16.90;;;-8.00;94.90;;;;;;5052223;28;20111;-80
2021/12/12 01:41:27;;;;;;;44.72;16.48;;;-8.00;94.90;;;;;;5052300;28;20071;-80
2021/12/12 01:43:58;;;;;;;23.80;12.63;;;-7.90;95.00;;;;;;5052499;28;20029;-79
2021/12/12 01:46:30;;;;;;;29.90;15.25;;;-7.90;95.00;;;;;;5039918;28;20028;-80
2021/12/12 01:49:18;;;;;;;28.38;16.42;;;-7.90;94.90;;;;;;5034139;28;20021;-81
2021/12/12 01:51:45;;;;;;;21.75;9.57;;;-8.00;94.80;;;;;;5032768;28;20102;-79
2021/12/12 01:54:13;;;;;;;29.10;15.93;;;-8.00;94.60;;;;;;5034039;28;20022;-80
2021/12/12 01:56:50;;;;;;;37.47;17.73;;;-8.10;94.60;;;;;;5011598;28;20470;-81
2021/12/12 01:59:18;;;;;;;31.70;19.33;;;-8.20;94.80;;;;;;5011472;28;20030;-82
2021/12/12 02:01:51;;;;;;;29.50;17.15;;;-8.20;94.90;;;;;;5011735;28;20050;-79
2021/12/12 02:04:23;;;;;;;41.33;18.25;;;-8.10;95.30;;;;;;5012478;28;20026;-79
2021/12/12 02:06:50;;;;;;;39.00;16.73;;;-8.10;95.20;;;;;;5011984;28;20083;-80
2021/12/12 02:09:18;;;;;;;38.20;14.85;;;-8.00;95.30;;;;;;4995463;28;20034;-80
2021/12/12 02:11:46;;;;;;;33.17;17.65;;;-8.00;95.20;;;;;;5011444;28;20026;-81
2021/12/12 02:14:16;;;;;;;24.75;13.93;;;-7.90;95.30;;;;;;5011909;28;20022;-79
2021/12/12 02:16:50;;;;;;;35.75;15.70;;;-7.90;95.30;;;;;;5012671;28;20026;-80
2021/12/12 02:19:18;;;;;;;27.08;15.40;;;-7.90;95.00;;;;;;5011281;28;20026;-80
2021/12/12 02:22:01;;;;;;;26.58;13.43;;;-7.90;94.80;;;;;;5013363;28;20052;-81
2021/12/12 02:37:45;;;;;;;31.92;13.80;;;-8.10;94.80;;;;;;5053294;28;20124;-80
2021/12/12 02:40:24;;;;;;;29.52;13.82;;;-8.10;94.90;;;;;;5053275;28;20032;-80
2021/12/12 02:42:52;;;;;;;28.33;14.85;;;-8.10;94.90;;;;;;5052703;28;20053;-78
2021/12/12 02:45:19;;;;;;;29.35;16.10;;;-8.10;94.90;;;;;;5036693;28;20092;-78
2021/12/12 02:47:53;;;;;;;23.10;14.32;;;-8.00;94.90;;;;;;5033573;28;20037;-78
2021/12/12 02:50:23;;;;;;;30.40;14.68;;;-8.10;94.90;;;;;;5034263;28;20102;-78
2021/12/12 02:52:54;;;;;;;28.00;14.77;;;-8.00;94.90;;;;;;5032031;28;20052;-78
2021/12/12 02:55:42;;;;;;;28.80;13.80;;;-8.00;95.10;;;;;;5033164;28;20017;-79
2021/12/12 02:58:13;;;;;;;33.90;18.20;;;-8.00;94.90;;;;;;5032904;28;20037;-78
2021/12/12 03:00:58;;;;;;;27.10;13.52;;;-8.10;94.90;;;;;;5031736;28;20259;-79
2021/12/12 03:03:27;;;;;;;28.05;15.00;;;-8.00;94.90;;;;;;5033962;28;20080;-78
2021/12/12 03:05:53;;;;;;;32.53;16.15;;;-8.00;94.90;;;;;;5033233;28;20044;-78
2021/12/12 03:08:19;;;;;;;27.33;15.27;;;-8.00;95.00;;;;;;5033965;28;20036;-78
2021/12/12 03:10:49;;;;;;;28.13;14.82;;;-8.00;94.90;;;;;;5032092;28;20068;-79
2021/12/12 03:13:16;;;;;;;30.80;14.90;;;-8.00;94.90;;;;;;5032512;28;20017;-78
2021/12/12 03:15:43;;;;;;;;;;;-8.00;94.90;;;;;;5033333;28;20087;-79
2021/12/12 03:18:14;;;;;;;23.73;13.70;;;-7.90;94.90;;;;;;5031354;28;19905;-79
2021/12/12 03:20:47;;;;;;;29.80;15.88;;;-7.90;94.90;;;;;;5033021;28;20060;-78
2021/12/12 03:23:41;;;;;;;29.25;14.05;;;-8.00;94.80;;;;;;5046554;28;20427;-80
2021/12/12 03:26:10;;;;;;;25.65;13.75;;;-8.00;94.80;;;;;;5053361;28;20033;-77
2021/12/12 03:28:38;;;;;;;32.17;15.70;;;-8.00;94.90;;;;;;5054628;28;20021;-78
2021/12/12 03:31:09;;;;;;;28.42;17.40;;;-8.00;94.90;;;;;;5056802;28;20025;-80
2021/12/12 03:33:35;;;;;;;32.45;14.93;;;-7.90;94.80;;;;;;5056539;28;20025;-78
2021/12/12 03:36:06;;;;;;;21.63;14.77;;;-8.00;94.80;;;;;;5056358;28;20032;-79
2021/12/12 03:38:33;;;;;;;28.25;14.77;;;-7.90;94.80;;;;;;5056208;28;20028;-78
2021/12/12 03:41:01;;;;;;;;;;;-7.90;94.90;;;;;;5055021;28;20041;-79
2021/12/12 03:43:28;;;;;;;29.73;15.25;;;-7.90;94.90;;;;;;5046205;28;20396;-78
2021/12/12 03:45:53;;;;;;;24.00;14.52;;;-7.90;94.90;;;;;;5036550;28;20104;-79
2021/12/12 03:48:24;;;;;;;28.48;15.60;;;-7.90;94.90;;;;;;5036385;28;20030;-78
2021/12/12 03:50:53;;;;;;;28.65;13.80;;;-7.80;94.90;;;;;;5036695;28;20394;-78
2021/12/12 03:53:19;;;;;;;26.00;14.23;;;-7.80;94.90;;;;;;5036264;28;20021;-78
2021/12/12 03:55:46;;;;;;;29.13;12.88;;;-7.80;94.80;;;;;;5036436;28;20025;-79
2021/12/12 03:58:13;;;;;;;30.55;14.82;;;-7.80;94.80;;;;;;5018594;28;20025;-79
2021/12/12 04:00:54;;;;;;;27.60;13.75;;;-7.80;94.80;;;;;;5036516;28;20027;-78
2021/12/12 04:03:21;;;;;;;24.65;13.07;;;-7.80;94.70;;;;;;5036624;28;20486;-78
2021/12/12 04:05:58;;;;;;;34.40;14.90;;;-7.70;94.70;;;;;;5034719;28;20029;-78
2021/12/12 04:08:30;;;;;;;24.52;11.88;;;-7.70;94.70;;;;;;5036134;28;20116;-77
2021/12/12 04:10:57;;;;;;;25.08;13.55;;;-7.70;94.70;;;;;;5036409;28;20366;-78
2021/12/12 04:13:23;;;;;;;24.75;13.10;;;-7.70;94.60;;;;;;5036203;28;20036;-79
2021/12/12 04:15:54;;;;;;;30.02;14.50;;;-7.70;94.60;;;;;;5034142;28;20029;-78
2021/12/12 04:18:26;;;;;;;26.50;13.65;;;-7.70;94.70;;;;;;5035834;28;20029;-79
2021/12/12 04:20:52;;;;;;;30.25;14.38;;;-7.70;94.70;;;;;;5034083;28;20049;-80
2021/12/12 04:23:21;;;;;;;28.50;12.98;;;-7.70;94.70;;;;;;5049785;28;20035;-80
2021/12/12 04:25:47;;;;;;;24.80;13.93;;;-7.70;94.60;;;;;;5055270;28;20025;-79
2021/12/12 04:28:13;;;;;;;29.75;14.95;;;-7.70;94.50;;;;;;5055767;28;20024;-79
2021/12/12 04:30:39;;;;;;;33.45;12.70;;;-7.70;94.60;;;;;;5054909;28;20390;-79
2021/12/12 04:33:06;;;;;;;29.55;15.13;;;-7.80;94.50;;;;;;5055226;28;20029;-80
2021/12/12 04:35:32;;;;;;;18.50;10.70;;;-7.80;94.60;;;;;;5055486;28;20029;-79
2021/12/12 04:38:00;;;;;;;31.38;14.52;;;-7.80;94.60;;;;;;5054107;28;20024;-78
2021/12/12 04:40:29;;;;;;;25.17;13.13;;;-7.80;94.70;;;;;;5053799;28;20075;-77
2021/12/12 04:42:56;;;;;;;30.48;13.93;;;-7.80;94.80;;;;;;5040792;28;20045;-79
2021/12/12 04:45:52;;;;;;;28.02;14.52;;;-7.80;94.80;;;;;;5035426;28;20022;-79
2021/12/12 04:51:29;;;;;;;22.60;11.98;;;-7.80;94.90;;;;;;5035291;28;20045;-79
2021/12/12 04:54:07;;;;;;;21.05;11.73;;;-7.70;94.90;;;;;;5035152;28;20056;-79
2021/12/12 04:56:59;;;;;;;26.23;13.38;;;-7.70;94.90;;;;;;5034936;28;20104;-79
2021/12/12 04:59:40;;;;;;;28.25;12.82;;;-7.70;94.70;;;;;;5037672;28;20034;-79
2021/12/12 05:02:15;;;;;;;31.73;15.82;;;-7.80;94.70;;;;;;5034769;28;20025;-79
2021/12/12 05:05:06;;;;;;;29.33;15.93;;;-7.80;94.80;;;;;;5034913;28;20021;-79
2021/12/12 05:07:47;;;;;;;22.48;11.43;;;-7.90;94.90;;;;;;5040031;28;20034;-79
2021/12/12 05:10:29;;;;;;;23.95;11.98;;;-7.80;95.00;;;;;;5039462;28;20034;-79
2021/12/12 05:13:02;;;;;;;24.85;12.88;;;-7.90;94.90;;;;;;5034928;28;20112;-79
2021/12/12 05:15:38;;;;;;;27.95;15.00;;;-7.90;95.00;;;;;;5034806;28;20025;-79
2021/12/12 05:18:14;;;;;;;23.92;12.85;;;-7.90;95.10;;;;;;5034715;28;20104;-78
2021/12/12 05:20:46;;;;;;;34.58;15.57;;;-7.90;95.20;;;;;;5034368;28;20029;-80
2021/12/12 05:23:16;;;;;;;30.17;17.65;;;-7.80;95.10;;;;;;5047483;28;20033;-80
2021/12/12 05:26:09;;;;;;;30.92;14.25;;;-7.80;95.10;;;;;;5054420;28;20053;-80
2021/12/12 05:28:48;;;;;;;26.42;13.15;;;-7.80;95.10;;;;;;5053741;28;20040;-79
2021/12/12 05:31:16;;;;;;;31.65;15.63;;;-7.80;95.10;;;;;;5054567;28;20017;-79
2021/12/12 05:33:43;;;;;;;36.60;16.10;;;-7.80;95.10;;;;;;5054222;28;20013;-81
2021/12/12 05:36:11;;;;;;;32.72;13.15;;;-7.80;95.10;;;;;;5054284;28;20074;-79
2021/12/12 05:38:38;;;;;;;23.08;12.50;;;-7.90;95.10;;;;;;5052718;28;20021;-80
2021/12/12 05:41:05;;;;;;;35.40;17.27;;;-7.80;95.10;;;;;;5045123;28;20038;-80
2021/12/12 05:43:31;;;;;;;29.50;16.50;;;-7.90;95.10;;;;;;5034113;28;20025;-79
2021/12/12 05:45:58;;;;;;;37.20;19.97;;;-7.90;95.20;;;;;;5034910;28;20047;-81
2021/12/12 05:48:24;;;;;;;30.33;14.03;;;-7.90;95.20;;;;;;5035066;28;20103;-80
2021/12/12 05:50:51;;;;;;;37.53;16.10;;;-7.90;95.20;;;;;;5033394;28;20073;-79
2021/12/12 05:53:18;;;;;;;32.05;16.27;;;-7.90;95.30;;;;;;5034024;28;20030;-80
2021/12/12 05:55:45;;;;;;;30.73;15.38;;;-7.90;95.40;;;;;;5033981;28;20496;-81
2021/12/12 05:58:15;;;;;;;37.25;17.30;;;-7.90;95.50;;;;;;5033785;28;20108;-80
2021/12/12 06:00:53;;;;;;;34.05;16.45;;;-7.90;95.50;;;;;;5015711;28;20061;-79
2021/12/12 06:03:22;;;;;;;40.80;17.17;;;-7.80;95.60;;;;;;5032397;28;20041;-78
2021/12/12 06:05:50;;;;;;;36.50;15.57;;;-7.80;95.60;;;;;;5033510;28;20049;-79
2021/12/12 06:08:17;;;;;;;46.28;18.52;;;-7.80;95.60;;;;;;5034026;28;20036;-78
2021/12/12 06:10:43;;;;;;;27.27;17.05;;;-7.80;95.60;;;;;;5033540;28;20049;-79
2021/12/12 06:13:15;;;;;;;44.40;19.20;;;-7.80;95.70;;;;;;5033806;28;20022;-78
2021/12/12 06:15:45;;;;;;;36.20;16.60;;;-7.80;95.70;;;;;;5033411;28;20414;-79
2021/12/12 06:18:12;;;;;;;44.42;17.88;;;-7.80;95.70;;;;;;5033849;28;20439;-80
2021/12/12 06:20:40;;;;;;;46.58;17.38;;;-7.80;95.80;;;;;;5033614;28;20059;-81
2021/12/12 06:23:08;;;;;;;34.75;18.90;;;-7.80;95.90;;;;;;5053091;28;20087;-81
2021/12/12 06:25:35;;;;;;;46.00;19.83;;;-7.80;95.90;;;;;;5053350;28;20392;-81
2021/12/12 06:28:06;;;;;;;;;;;-7.80;96.20;;;;;;5053626;28;20016;-80
2021/12/12 06:30:32;;;;;;;39.05;17.27;;;-7.70;95.90;;;;;;5049141;28;20033;-79
2021/12/12 06:32:57;;;;;;;40.13;17.52;;;-7.80;95.90;;;;;;5033393;28;20108;-80
2021/12/12 06:35:23;;;;;;;36.25;15.20;;;-7.80;95.90;;;;;;5032883;28;20047;-79
2021/12/12 06:37:50;;;;;;;41.85;19.23;;;-7.80;95.90;;;;;;5033376;28;20109;-79
2021/12/12 06:40:20;;;;;;;39.57;16.07;;;-7.70;96.00;;;;;;5033162;28;20029;-79
2021/12/12 06:42:48;;;;;;;39.42;16.83;;;-7.70;96.00;;;;;;5032869;28;20334;-79
2021/12/12 06:45:16;;;;;;;43.33;19.10;;;-7.70;96.20;;;;;;5032405;28;20074;-80
2021/12/12 06:47:41;;;;;;;;;;;-7.70;96.20;;;;;;5033591;28;20033;-80
2021/12/12 06:50:09;;;;;;;44.38;18.85;;;-7.60;96.30;;;;;;5033272;28;19905;-80
2021/12/12 06:52:36;;;;;;;44.53;18.73;;;-7.70;96.30;;;;;;5033040;28;20026;-80
2021/12/12 06:55:05;;;;;;;37.55;17.85;;;-7.60;96.40;;;;;;5033527;28;20033;-79
2021/12/12 06:57:32;;;;;;;47.75;19.27;;;-7.60;96.40;;;;;;5033226;28;20021;-80
2021/12/12 06:59:57;;;;;;;47.13;20.33;;;-7.60;96.40;;;;;;5032942;28;20063;-79
2021/12/12 07:02:24;;;;;;;42.38;17.83;;;-7.50;96.50;;;;;;5032864;28;20427;-81
2021/12/12 07:04:50;;;;;;;52.90;19.42;;;-7.50;96.50;;;;;;5037665;28;20064;-81
2021/12/12 07:07:17;;;;;;;46.72;21.40;;;-7.50;96.50;;;;;;5036444;28;20036;-81
2021/12/12 07:09:44;;;;;;;33.83;18.40;;;-7.40;96.40;;;;;;5039478;28;20488;-80
2021/12/12 07:12:13;;;;;;;43.42;18.13;;;-7.50;96.40;;;;;;5041919;28;20122;-80
2021/12/12 07:14:40;;;;;;;44.95;18.23;;;-7.40;96.60;;;;;;5037105;28;20040;-79
2021/12/12 07:17:06;;;;;;;40.75;19.52;;;-7.40;96.60;;;;;;5036841;28;20102;-82
2021/12/12 07:19:32;;;;;;;45.03;19.13;;;-7.40;96.60;;;;;;5037247;28;20432;-80
2021/12/12 07:21:59;;;;;;;46.13;21.42;;;-7.40;96.60;;;;;;5039783;28;20029;-80
2021/12/12 07:24:26;;;;;;;39.60;17.40;;;-7.40;96.50;;;;;;5057681;28;20068;-80
2021/12/12 07:26:52;;;;;;;37.95;18.88;;;-7.30;96.60;;;;;;5056961;28;20029;-81
2021/12/12 07:29:19;;;;;;;49.63;20.88;;;-7.40;96.60;;;;;;5057348;28;20024;-80
2021/12/12 07:31:48;;;;;;;41.63;18.30;;;-7.40;96.50;;;;;;5056521;28;20370;-82
2021/12/12 07:34:16;;;;;;;44.05;17.45;;;-7.40;96.60;;;;;;5055502;28;20025;-81
2021/12/12 07:36:47;;;;;;;50.95;22.77;;;-7.40;96.50;;;;;;5054975;28;20088;-83
2021/12/12 07:39:15;;;;;;;52.10;20.23;;;-7.40;96.50;;;;;;5041621;28;20478;-80
2021/12/12 07:41:43;;;;;;;46.15;20.65;;;-7.40;96.60;;;;;;5036877;28;20087;-80
2021/12/12 07:44:11;;;;;;;42.78;20.92;;;-7.30;96.60;;;;;;5036791;28;20421;-80
2021/12/12 07:46:38;;;;;;;50.22;21.08;;;-7.30;96.60;;;;;;5035991;28;20045;-80
2021/12/12 07:49:06;;;;;;;36.78;16.45;;;-7.30;96.70;;;;;;5040518;28;20104;-79
2021/12/12 07:51:35;;;;;;;47.05;22.52;;;-7.30;96.70;;;;;;5034888;28;20033;-80
2021/12/12 07:54:03;;;;;;;40.40;20.05;;;-7.30;96.70;;;;;;5040242;28;20104;-79
2021/12/12 07:56:32;;;;;;;46.17;22.92;;;-7.20;96.70;;;;;;5036603;28;20390;-79
2021/12/12 07:59:00;;;;;;;52.90;22.00;;;-7.20;96.70;;;;;;5054348;28;20104;-78
2021/12/12 08:01:27;;;;;;;50.70;22.85;;;-7.10;96.80;;;;;;5057778;28;20033;-78
2021/12/12 08:03:56;;;;;;;51.30;21.63;;;-7.10;96.70;;;;;;5043136;28;20028;-81
2021/12/12 08:06:24;;;;;;;48.38;21.10;;;-7.10;96.60;;;;;;5054494;28;20071;-80
2021/12/12 08:08:51;;;;;;;55.13;23.88;;;-7.10;96.60;;;;;;5055160;28;20028;-80
2021/12/12 08:11:24;;;;;;;51.83;22.80;;;-7.10;96.60;;;;;;5055541;28;20048;-79
2021/12/12 08:13:50;;;;;;;52.65;25.23;;;-7.10;96.70;;;;;;5055302;28;20116;-79
2021/12/12 08:16:18;;;;;;;53.22;24.48;;;-7.10;96.60;;;;;;5054797;28;20021;-79
2021/12/12 08:18:45;;;;;;;60.28;23.65;;;-7.00;96.70;;;;;;5055232;28;20043;-79
2021/12/12 08:21:11;;;;;;;46.63;21.77;;;-7.00;96.70;;;;;;5045549;28;20429;-80
2021/12/12 08:23:39;;;;;;;50.90;20.55;;;-7.00;96.70;;;;;;5052367;28;20402;-80
2021/12/12 08:26:07;;;;;;;55.30;22.75;;;-7.00;96.50;;;;;;5045876;28;20032;-76
2021/12/12 08:28:34;;;;;;;57.92;22.90;;;-7.00;96.60;;;;;;5054643;28;20375;-76
2021/12/12 08:31:01;;;;;;;46.08;19.60;;;-7.00;96.70;;;;;;5054962;28;20067;-76
2021/12/12 08:33:28;;;;;;;51.20;23.35;;;-7.00;96.80;;;;;;5055499;28;20028;-76
2021/12/12 08:35:55;;;;;;;49.15;21.80;;;-7.00;96.80;;;;;;5054655;28;20025;-76
2021/12/12 08:38:22;;;;;;;48.63;22.70;;;-7.00;96.70;;;;;;5046132;28;20025;-77
2021/12/12 08:40:55;;;;;;;55.70;25.08;;;-7.00;96.70;;;;;;5052667;28;20393;-81
2021/12/12 08:43:26;;;;;;;54.53;23.95;;;-7.00;96.80;;;;;;5043158;28;20040;-80
2021/12/12 08:45:58;;;;;;;56.25;25.52;;;-7.00;97.00;;;;;;5044467;28;20022;-81
2021/12/12 08:48:27;;;;;;;60.55;23.80;;;-6.90;97.00;;;;;;5055052;28;20078;-81
2021/12/12 08:50:56;;;;;;;58.78;25.48;;;-6.90;97.00;;;;;;5053943;28;20036;-80
2021/12/12 08:53:23;;;;;;;61.53;26.05;;;-6.90;97.10;;;;;;5041702;28;20067;-78
2021/12/12 08:55:54;;;;;;;44.90;18.27;;;-6.80;97.20;;;;;;5054706;28;20029;-78
2021/12/12 08:58:24;;;;;;;50.83;26.23;;;-6.70;97.20;;;;;;5034003;28;20030;-77
2021/12/12 09:00:59;;;;;;;60.80;27.58;;;-6.70;97.10;;;;;;5044519;28;20044;-75
2021/12/12 09:03:30;;;;;;;53.85;25.08;;;-6.70;97.20;;;;;;5047666;28;20370;-75
2021/12/12 09:05:56;;;;;;;48.15;21.35;;;-6.70;97.30;;;;;;5053611;28;20453;-76
2021/12/12 09:08:44;;;;;;;61.75;25.85;;;-6.60;97.20;;;;;;5053827;28;20061;-79
2021/12/12 09:11:31;;;;;;;50.22;25.38;;;-6.60;97.30;;;;;;5054179;28;20021;-78
2021/12/12 09:14:03;;;;;;;61.17;21.42;;;-6.60;97.40;;;;;;5038145;28;20026;-79
2021/12/12 09:16:37;;;;;;;74.43;29.40;;;-6.50;97.40;;;;;;5048514;28;20028;-81
2021/12/12 09:19:09;;;;;;;63.92;30.55;;;-6.40;97.40;;;;;;5050487;28;20029;-82
2021/12/12 09:21:50;;;;;;;53.72;27.27;;;-6.40;97.40;;;;;;5034006;28;20037;-80
2021/12/12 09:24:47;;;;;;;59.30;26.05;;;-6.40;97.40;;;;;;5047460;28;20032;-77
2021/12/12 09:27:23;;;;;;;55.35;26.15;;;-6.30;97.40;;;;;;5052968;28;20120;-79
2021/12/12 09:30:02;;;;;;;64.07;25.20;;;-6.20;97.30;;;;;;5055285;28;20029;-79
2021/12/12 09:32:50;;;;;;;56.75;27.52;;;-6.20;97.30;;;;;;5055046;28;20025;-78
2021/12/12 09:35:22;;;;;;;51.97;23.65;;;-6.10;97.40;;;;;;5049009;28;20048;-78
2021/12/12 09:37:52;;;;;;;73.63;29.20;;;-6.10;97.30;;;;;;5034610;28;20025;-79
2021/12/12 09:40:36;;;;;;;65.35;28.00;;;-6.00;97.30;;;;;;5034172;28;20030;-77
2021/12/12 09:43:16;;;;;;;60.63;25.52;;;-6.00;97.30;;;;;;5034816;28;20046;-80
2021/12/12 09:46:20;;;;;;;59.03;25.55;;;-5.90;97.30;;;;;;5032657;28;20498;-78
2021/12/12 09:52:25;;;;;;;56.03;27.35;;;-5.80;97.30;;;;;;5033640;28;20117;-79
2021/12/12 09:55:08;;;;;;;61.65;29.55;;;-5.70;97.30;;;;;;5032197;28;20060;-77
2021/12/12 09:57:42;;;;;;;65.07;27.85;;;-5.70;97.30;;;;;;5033432;28;20028;-77
2021/12/12 10:00:14;;;;;;;65.53;31.45;;;-5.60;97.30;;;;;;5033654;28;20359;-80
2021/12/12 10:02:52;;;;;;;60.97;27.58;;;-5.50;97.30;;;;;;5033538;28;20037;-78
2021/12/12 10:05:20;;;;;;;;;;;-5.50;97.30;;;;;;5033605;28;20021;-77
2021/12/12 10:08:00;;;;;;;59.90;25.40;;;-5.40;97.20;;;;;;5033672;28;20293;-77
2021/12/12 10:11:06;;;;;;;65.03;29.05;;;-5.40;97.20;;;;;;5033612;28;20021;-78
2021/12/12 10:13:40;;;;;;;;;;;-5.40;97.20;;;;;;5035509;28;20026;-78
2021/12/12 10:16:30;;;;;;;73.95;31.63;;;-5.30;97.30;;;;;;5032356;28;19905;-77
2021/12/12 10:19:03;;;;;;;56.42;25.52;;;-5.30;97.40;;;;;;5033514;28;20021;-78
2021/12/12 10:21:54;;;;;;;70.25;29.83;;;-5.20;97.30;;;;;;5031531;28;20041;-77
2021/12/12 10:24:26;;;;;;;70.20;30.42;;;-5.20;97.40;;;;;;5032985;28;20374;-78
2021/12/12 10:27:18;;;;;;;78.78;29.67;;;-5.20;97.40;;;;;;5033651;28;20025;-76
2021/12/12 10:30:04;;;;;;;64.63;27.73;;;-5.30;97.40;;;;;;5032966;28;20024;-76
2021/12/12 10:32:34;;;;;;;69.90;31.85;;;-5.20;97.40;;;;;;5033042;28;20029;-77
2021/12/12 10:35:03;;;;;;;73.38;29.33;;;-5.30;97.40;;;;;;5032676;28;20026;-77
2021/12/12 10:37:35;;;;;;;72.50;27.75;;;-5.30;97.50;;;;;;5032653;28;20021;-78
2021/12/12 10:40:15;;;;;;;83.47;33.17;;;-5.20;97.60;;;;;;5033222;28;20029;-78
2021/12/12 10:42:47;;;;;;;68.57;30.48;;;-5.20;97.80;;;;;;5032557;28;20045;-78
2021/12/12 10:45:25;;;;;;;64.70;29.20;;;-5.30;97.80;;;;;;5032847;28;20121;-77
2021/12/12 10:47:54;;;;;;;70.35;27.95;;;-5.30;98.00;;;;;;5032982;28;20434;-78
2021/12/12 10:50:30;;;;;;;49.28;23.42;;;-5.30;98.10;;;;;;5032725;28;20490;-78
2021/12/12 10:53:14;;;;;;;60.45;29.05;;;-5.20;98.20;;;;;;5031581;28;20466;-78
2021/12/12 10:55:55;;;;;;;57.63;27.73;;;-5.20;98.30;;;;;;5031272;28;20389;-78
2021/12/12 10:58:43;;;;;;;69.25;27.83;;;-5.10;98.50;;;;;;5032638;28;20053;-79
2021/12/12 11:01:27;;;;;;;82.00;31.77;;;-5.10;98.50;;;;;;5032491;28;20017;-79
2021/12/12 11:03:58;;;;;;;60.75;28.27;;;-5.00;98.60;;;;;;5034136;28;20136;-78
2021/12/12 11:06:37;;;;;;;80.50;31.75;;;-4.90;98.60;;;;;;5033408;28;20076;-79
2021/12/12 11:09:15;;;;;;;75.32;33.15;;;-4.90;98.70;;;;;;5034079;28;20328;-76
2021/12/12 11:11:50;;;;;;;73.80;31.85;;;-4.80;98.70;;;;;;5032928;28;20113;-79
2021/12/12 11:14:29;;;;;;;70.75;30.38;;;-4.70;98.60;;;;;;5032773;28;20025;-77
2021/12/12 11:17:04;;;;;;;63.25;31.25;;;-4.70;98.60;;;;;;5031246;28;20079;-79
2021/12/12 11:19:35;;;;;;;67.55;28.88;;;-4.60;98.70;;;;;;5031996;28;20478;-77
2021/12/12 11:22:26;;;;;;;72.60;30.35;;;-4.60;98.60;;;;;;5040232;28;20120;-77
2021/12/12 11:25:08;;;;;;;72.20;34.90;;;-4.60;98.60;;;;;;5057761;28;20048;-76
2021/12/12 11:27:47;;;;;;;61.85;27.55;;;-4.60;98.60;;;;;;5052492;28;20020;-79
2021/12/12 11:30:21;;;;;;;64.32;30.02;;;-4.50;98.70;;;;;;5052517;28;20033;-76
2021/12/12 11:32:49;;;;;;;60.97;30.48;;;-4.50;98.80;;;;;;5047634;28;20053;-76
2021/12/12 11:35:19;;;;;;;70.00;30.35;;;-4.50;98.80;;;;;;5032380;28;20021;-79
2021/12/12 11:38:07;;;;;;;65.38;28.08;;;-4.50;98.80;;;;;;5032327;28;20064;-77
2021/12/12 11:40:52;;;;;;;73.65;30.45;;;-4.40;98.80;;;;;;5032520;28;20030;-80
2021/12/12 11:43:19;;;;;;;70.85;30.85;;;-4.50;98.80;;;;;;5033440;28;20466;-79
2021/12/12 11:45:59;;;;;;;67.03;29.50;;;-4.50;98.80;;;;;;5040754;28;20013;-82
2021/12/12 11:48:46;;;;;;;68.50;30.25;;;-4.50;98.90;;;;;;5040760;28;20130;-81
2021/12/12 11:51:33;;;;;;;63.80;27.67;;;-4.50;99.00;;;;;;5048504;28;20036;-83
2021/12/12 11:54:15;;;;;;;71.70;32.08;;;-4.40;99.00;;;;;;5052120;28;20053;-82
2021/12/12 11:56:53;;;;;;;73.70;31.90;;;-4.50;99.00;;;;;;5042750;28;20372;-81
2021/12/12 11:59:29;;;;;;;73.55;28.75;;;-4.50;99.10;;;;;;5045660;28;20017;-81
2021/12/12 12:02:23;;;;;;;81.28;33.42;;;-4.40;99.10;;;;;;5051561;28;20025;-82
2021/12/12 12:04:54;;;;;;;76.38;30.55;;;-4.40;99.10;;;;;;5042652;28;20037;-82
2021/12/12 12:07:59;;;;;;;78.90;32.67;;;-4.40;99.20;;;;;;5043688;28;20323;-81
2021/12/12 12:10:30;;;;;;;88.25;34.65;;;-4.30;99.20;;;;;;5036719;28;20025;-81
2021/12/12 12:13:11;;;;;;;81.38;34.47;;;-4.30;99.20;;;;;;5053292;28;20033;-81
2021/12/12 12:15:49;;;;;;;71.95;32.78;;;-4.30;99.20;;;;;;5042692;28;20063;-79
2021/12/12 12:18:33;;;;;;;89.78;35.22;;;-4.30;99.30;;;;;;5054866;28;20490;-79
2021/12/12 12:21:14;;;;;;;73.05;30.67;;;-4.30;99.40;;;;;;5053951;28;20025;-79
2021/12/12 12:26:51;;;;;;;74.25;32.13;;;-4.30;99.40;;;;;;5051912;28;20017;-79
2021/12/12 12:29:33;;;;;;;71.63;32.92;;;-4.30;99.60;;;;;;5053761;28;20021;-78
2021/12/12 12:32:43;;;;;;;82.18;33.00;;;-4.30;99.60;;;;;;5045652;28;20021;-79
2021/12/12 12:35:33;;;;;;;75.82;33.47;;;-4.30;99.70;;;;;;5053137;28;20021;-83
2021/12/12 12:38:36;;;;;;;83.53;34.67;;;-4.30;99.60;;;;;;5055387;28;20108;-83
2021/12/12 12:41:40;;;;;;;76.90;32.85;;;-4.30;99.70;;;;;;5042613;28;20102;-81
2021/12/12 12:44:30;;;;;;;85.35;33.88;;;-4.20;99.80;;;;;;5034272;28;20041;-81
2021/12/12 12:47:33;;;;;;;88.15;33.70;;;-4.20;99.80;;;;;;5044933;28;20021;-78
2021/12/12 12:50:18;;;;;;;79.30;34.22;;;-4.20;99.80;;;;;;5054460;28;20021;-76
2021/12/12 12:53:17;;;;;;;76.53;32.92;;;-4.20;99.90;;;;;;5054738;28;20027;-77
2021/12/12 12:56:04;;;;;;;80.32;31.00;;;-4.20;99.90;;;;;;5047700;28;20485;-78
2021/12/12 12:58:48;;;;;;;;;;;-4.20;99.90;;;;;;5055094;28;20032;-82
2021/12/12 13:01:29;;;;;;;76.13;31.10;;;-4.30;99.80;;;;;;5054411;28;19935;-82
2021/12/12 13:04:22;;;;;;;76.57;29.70;;;-4.30;99.90;;;;;;5051195;28;20030;-80
2021/12/12 13:07:10;;;;;;;73.25;31.20;;;-4.30;99.90;;;;;;5049170;28;20029;-79
2021/12/12 13:10:03;;;;;;;79.10;33.67;;;-4.30;99.90;;;;;;5057163;28;20056;-79
2021/12/12 13:12:53;;;;;;;76.32;36.00;;;-4.30;99.90;;;;;;5053931;28;20028;-80
2021/12/12 13:15:31;;;;;;;70.15;30.45;;;-4.30;99.90;;;;;;5048402;28;20041;-80
2021/12/12 13:18:35;;;;;;;68.03;28.58;;;-4.30;99.90;;;;;;5038920;28;20032;-82
2021/12/12 13:21:28;;;;;;;74.25;34.40;;;-4.30;99.90;;;;;;5040418;28;20436;-80
2021/12/12 13:24:27;;;;;;;81.03;31.08;;;-4.30;99.90;;;;;;5051919;28;20447;-80
2021/12/12 13:27:10;;;;;;;76.72;29.58;;;-4.20;99.90;;;;;;5053643;28;20057;-80